Weather at Châlons-Vatry Airport

Public forecast

Using degrees Celsius for public forecast. Weather courtesy of forecast.io.

Current aviation weather report (METAR) for Châlons-Vatry Airport

Retrieved 2020/11/30 04:30 UTC (0 seconds ago):

LFOK 300430Z AUTO 36005KT 4400 BR NSC M05/M06 Q1027 TEMPO 0300 FZFG VV///

Aviation forecast (TAF) for Châlons-Vatry Airport

Retrieved 2020-11-30 00:42 UTC (3 hours ago):

TAF LFOK 292300Z 3000/3024 06008KT 7000 NSC TEMPO 3004/3009 0300 FZFG VV/// BECMG 3016/3018 22010KT OVC005 TEMPO 3018/3024 1200 DZRA OVC001